Time;durP1;ratioP1;P1;durP2;ratioP2;P2;SDS_P1;SDS_P2;PMS_P1;PMS_P2;Temp;Humidity;BMP_temperature;BMP_pressure;BME280_temperature;BME280_humidity;BME280_pressure;Samples;Min_cycle;Max_cycle;Signal;HPM_P1;HPM_P2
2021/07/16 00:01:53;;;;;;;56.57;53.33;;;;;;;;;;5051619;28;20450;-67
2021/07/16 00:04:20;;;;;;;53.33;50.03;;;;;;;;;;5051814;28;20448;-68
2021/07/16 00:06:48;;;;;;;55.40;52.30;;;;;;;;;;5052816;28;20448;-68
2021/07/16 00:09:16;;;;;;;55.43;52.20;;;;;;;;;;5069764;28;20451;-69
2021/07/16 00:11:43;;;;;;;57.40;53.90;;;;;;;;;;5069710;28;20460;-66
2021/07/16 00:14:10;;;;;;;56.50;53.40;;;;;;;;;;5064330;28;20458;-69
2021/07/16 00:16:38;;;;;;;60.40;56.77;;;;;;;;;;5057189;28;20788;-68
2021/07/16 00:19:05;;;;;;;61.60;58.10;;;;;;;;;;5070294;28;20485;-68
2021/07/16 00:21:33;;;;;;;61.60;58.20;;;;;;;;;;5063361;28;20462;-68
2021/07/16 00:24:01;;;;;;;61.10;57.67;;;;;;;;;;5052879;28;20472;-68
2021/07/16 00:26:28;;;;;;;62.53;59.03;;;;;;;;;;5051922;28;20458;-68
2021/07/16 00:28:55;;;;;;;62.03;58.63;;;;;;;;;;5054337;28;20452;-68
2021/07/16 00:31:22;;;;;;;60.20;56.60;;;;;;;;;;5052279;28;20458;-68
2021/07/16 00:33:51;;;;;;;64.90;60.80;;;;;;;;;;5054446;28;20479;-68
2021/07/16 00:36:18;;;;;;;66.20;62.57;;;;;;;;;;5069550;28;20479;-69
2021/07/16 00:38:45;;;;;;;62.77;59.17;;;;;;;;;;5060380;28;20448;-69
2021/07/16 00:41:14;;;;;;;64.90;61.10;;;;;;;;;;5051088;28;20459;-69
2021/07/16 00:43:41;;;;;;;63.30;59.37;;;;;;;;;;5056846;28;20492;-69
2021/07/16 00:46:08;;;;;;;64.93;61.10;;;;;;;;;;5053588;28;20455;-67
2021/07/16 00:48:35;;;;;;;66.00;62.40;;;;;;;;;;5063311;28;20459;-69
2021/07/16 00:51:02;;;;;;;65.70;61.60;;;;;;;;;;5067293;28;20450;-68
2021/07/16 00:53:29;;;;;;;63.47;59.97;;;;;;;;;;5063237;28;20463;-69
2021/07/16 00:55:56;;;;;;;69.53;65.83;;;;;;;;;;5057882;28;20885;-68
2021/07/16 00:58:25;;;;;;;66.47;62.30;;;;;;;;;;5056470;28;20455;-68
2021/07/16 01:00:52;;;;;;;67.20;63.30;;;;;;;;;;5055610;28;20451;-67
2021/07/16 01:03:19;;;;;;;66.03;62.40;;;;;;;;;;5074452;28;20471;-68
2021/07/16 01:05:46;;;;;;;60.77;56.90;;;;;;;;;;5074820;28;20444;-67
2021/07/16 01:08:13;;;;;;;62.30;58.80;;;;;;;;;;5066924;28;20452;-69
2021/07/16 01:10:40;;;;;;;62.80;59.30;;;;;;;;;;5062184;28;20457;-67
2021/07/16 01:13:13;;;;;;;62.80;59.20;;;;;;;;;;5074311;28;20470;-69
2021/07/16 01:15:42;;;;;;;62.17;58.60;;;;;;;;;;5055147;28;20460;-67
2021/07/16 01:18:09;;;;;;;61.00;57.50;;;;;;;;;;5054723;28;20458;-69
2021/07/16 01:20:37;;;;;;;58.23;54.83;;;;;;;;;;5057332;28;20809;-67
2021/07/16 01:23:11;;;;;;;61.00;57.60;;;;;;;;;;5063377;28;20479;-68
2021/07/16 01:25:38;;;;;;;61.03;57.47;;;;;;;;;;5059391;28;20457;-66
2021/07/16 01:28:06;;;;;;;62.60;59.10;;;;;;;;;;5064962;28;20455;-68
2021/07/16 01:30:34;;;;;;;57.37;54.00;;;;;;;;;;5062710;28;20462;-67
2021/07/16 01:33:01;;;;;;;59.20;55.80;;;;;;;;;;5071017;28;20466;-65
2021/07/16 01:35:29;;;;;;;58.80;55.07;;;;;;;;;;5054111;28;21003;-68
2021/07/16 01:37:56;;;;;;;54.67;51.57;;;;;;;;;;5054167;28;20448;-68
2021/07/16 01:40:26;;;;;;;53.90;50.90;;;;;;;;;;5071505;28;20465;-69
2021/07/16 01:42:55;;;;;;;55.97;52.20;;;;;;;;;;5058806;28;20475;-66
2021/07/16 01:45:23;;;;;;;54.63;51.33;;;;;;;;;;5070206;28;20452;-68
2021/07/16 01:47:57;;;;;;;54.90;51.60;;;;;;;;;;5059150;28;20447;-69
2021/07/16 01:50:24;;;;;;;53.70;50.50;;;;;;;;;;5071119;28;20446;-68
2021/07/16 01:52:52;;;;;;;48.97;45.90;;;;;;;;;;5073436;28;20470;-66
2021/07/16 01:55:19;;;;;;;51.77;48.77;;;;;;;;;;5074160;28;20479;-68
2021/07/16 01:57:48;;;;;;;51.37;48.27;;;;;;;;;;5068116;28;20461;-68
2021/07/16 02:00:17;;;;;;;50.90;48.00;;;;;;;;;;5055907;28;20452;-66
2021/07/16 02:02:48;;;;;;;50.37;47.27;;;;;;;;;;5054199;28;20477;-68
2021/07/16 02:05:15;;;;;;;46.00;43.30;;;;;;;;;;5058154;28;20455;-69
2021/07/16 02:07:42;;;;;;;48.13;44.90;;;;;;;;;;5072835;28;20821;-68
2021/07/16 02:10:10;;;;;;;51.03;48.10;;;;;;;;;;5056531;28;20451;-65
2021/07/16 02:12:37;;;;;;;50.23;47.03;;;;;;;;;;5056047;28;20747;-68
2021/07/16 02:15:08;;;;;;;47.47;44.67;;;;;;;;;;5057963;28;20456;-68
2021/07/16 02:17:36;;;;;;;47.40;44.60;;;;;;;;;;5064115;28;20444;-69
2021/07/16 02:20:03;;;;;;;46.90;44.03;;;;;;;;;;5054579;28;20459;-68
2021/07/16 02:22:30;;;;;;;46.33;43.57;;;;;;;;;;5066483;28;20475;-66
2021/07/16 02:24:57;;;;;;;47.33;44.50;;;;;;;;;;5061172;28;20963;-68
2021/07/16 02:27:24;;;;;;;47.07;44.00;;;;;;;;;;5062217;28;20474;-66
2021/07/16 02:29:51;;;;;;;45.67;42.50;;;;;;;;;;5080638;28;20461;-68
2021/07/16 02:32:19;;;;;;;49.10;45.33;;;;;;;;;;5092445;28;20590;-66
2021/07/16 02:34:47;;;;;;;48.57;45.60;;;;;;;;;;5056662;28;20462;-68
2021/07/16 02:37:14;;;;;;;47.97;45.07;;;;;;;;;;5053200;28;20574;-68
2021/07/16 02:39:41;;;;;;;48.13;45.27;;;;;;;;;;5054559;28;20456;-68
2021/07/16 02:42:08;;;;;;;45.27;42.37;;;;;;;;;;5061291;28;21027;-66
2021/07/16 02:44:35;;;;;;;44.90;42.20;;;;;;;;;;5053376;28;20440;-66
2021/07/16 02:47:02;;;;;;;42.17;39.53;;;;;;;;;;5053179;28;20456;-67
2021/07/16 02:49:31;;;;;;;43.80;41.17;;;;;;;;;;5057189;28;20825;-68
2021/07/16 02:51:58;;;;;;;43.03;40.33;;;;;;;;;;5064399;28;21017;-68
2021/07/16 02:54:25;;;;;;;42.43;39.43;;;;;;;;;;5053740;28;20452;-69
2021/07/16 02:56:52;;;;;;;40.47;37.87;;;;;;;;;;5067329;28;20489;-68
2021/07/16 02:59:19;;;;;;;40.80;37.70;;;;;;;;;;5054672;28;20958;-68
2021/07/16 03:01:55;;;;;;;40.53;37.93;;;;;;;;;;5055191;28;20448;-69
2021/07/16 03:04:23;;;;;;;41.80;39.37;;;;;;;;;;5054106;28;20475;-69
2021/07/16 03:06:51;;;;;;;41.30;38.30;;;;;;;;;;5052912;28;20456;-69
2021/07/16 03:09:19;;;;;;;42.50;39.67;;;;;;;;;;5065036;28;20985;-69
2021/07/16 03:11:46;;;;;;;41.00;38.40;;;;;;;;;;5052165;28;20452;-68
2021/07/16 03:14:14;;;;;;;42.10;38.77;;;;;;;;;;5052786;28;20529;-69
2021/07/16 03:16:41;;;;;;;40.60;37.90;;;;;;;;;;5068975;28;20471;-68
2021/07/16 03:19:08;;;;;;;39.57;37.20;;;;;;;;;;5067848;28;20947;-69
2021/07/16 03:21:35;;;;;;;40.00;37.40;;;;;;;;;;5057546;28;20475;-66
2021/07/16 03:24:04;;;;;;;39.17;36.17;;;;;;;;;;5052338;28;20459;-68
2021/07/16 03:26:31;;;;;;;38.27;35.77;;;;;;;;;;5056186;28;20462;-67
2021/07/16 03:28:58;;;;;;;39.70;37.00;;;;;;;;;;5070219;28;20466;-68
2021/07/16 03:31:25;;;;;;;38.57;35.43;;;;;;;;;;5065312;28;20466;-66
2021/07/16 03:33:53;;;;;;;38.63;36.17;;;;;;;;;;5052061;28;20494;-68
2021/07/16 03:36:20;;;;;;;38.30;35.60;;;;;;;;;;5063421;28;20492;-67
2021/07/16 03:38:48;;;;;;;36.37;33.97;;;;;;;;;;5053599;28;20951;-67
2021/07/16 03:41:16;;;;;;;37.90;35.30;;;;;;;;;;5051732;28;20471;-69
2021/07/16 03:43:43;;;;;;;39.90;36.97;;;;;;;;;;5051922;28;20475;-68
2021/07/16 03:46:10;;;;;;;35.67;33.13;;;;;;;;;;5062631;28;20477;-68
2021/07/16 03:48:38;;;;;;;37.30;34.80;;;;;;;;;;5071722;28;20453;-69
2021/07/16 03:51:05;;;;;;;38.37;35.47;;;;;;;;;;5061971;28;20452;-67
2021/07/16 03:53:32;;;;;;;37.50;34.87;;;;;;;;;;5052461;28;20472;-67
2021/07/16 03:55:59;;;;;;;37.80;35.20;;;;;;;;;;5057685;28;20489;-68
2021/07/16 03:58:27;;;;;;;37.90;34.43;;;;;;;;;;5063010;28;20456;-67
2021/07/16 04:00:54;;;;;;;37.87;35.37;;;;;;;;;;5057925;28;20455;-67
2021/07/16 04:03:22;;;;;;;38.10;35.30;;;;;;;;;;5066972;28;20470;-69
2021/07/16 04:05:49;;;;;;;37.30;34.77;;;;;;;;;;5059223;28;20451;-67
2021/07/16 04:08:18;;;;;;;38.20;35.37;;;;;;;;;;5070141;28;20455;-68
2021/07/16 04:10:45;;;;;;;36.87;33.70;;;;;;;;;;5069828;28;20539;-68
2021/07/16 04:13:13;;;;;;;36.17;33.67;;;;;;;;;;5069259;28;20475;-69
2021/07/16 04:15:42;;;;;;;35.50;33.00;;;;;;;;;;5052793;28;20448;-68
2021/07/16 04:18:10;;;;;;;35.43;32.83;;;;;;;;;;5059627;28;20453;-68
2021/07/16 04:20:37;;;;;;;35.50;33.10;;;;;;;;;;5064922;28;20449;-68
2021/07/16 04:23:05;;;;;;;35.30;32.70;;;;;;;;;;5051370;28;20472;-66
2021/07/16 04:25:32;;;;;;;35.00;32.60;;;;;;;;;;5068811;28;20798;-68
2021/07/16 04:28:00;;;;;;;33.93;31.40;;;;;;;;;;5061408;28;20448;-68
2021/07/16 04:30:28;;;;;;;33.77;31.30;;;;;;;;;;5051440;28;20455;-67
2021/07/16 04:32:57;;;;;;;34.43;31.80;;;;;;;;;;5051247;28;20823;-68
2021/07/16 04:35:25;;;;;;;33.17;30.87;;;;;;;;;;5053038;28;20452;-68
2021/07/16 04:37:52;;;;;;;33.57;31.00;;;;;;;;;;5051092;28;20483;-69
2021/07/16 04:40:20;;;;;;;35.07;32.20;;;;;;;;;;5068936;28;20447;-69
2021/07/16 04:42:47;;;;;;;35.07;32.40;;;;;;;;;;5078223;22;20526;-72
2021/07/16 04:45:15;;;;;;;34.17;31.77;;;;;;;;;;5049893;28;20486;-72
2021/07/16 04:47:42;;;;;;;33.50;30.90;;;;;;;;;;5050160;28;20815;-71
2021/07/16 04:50:11;;;;;;;33.23;30.97;;;;;;;;;;5050467;28;20456;-71
2021/07/16 04:52:39;;;;;;;32.57;30.17;;;;;;;;;;5050295;28;20458;-72
2021/07/16 04:55:06;;;;;;;34.80;32.20;;;;;;;;;;5038524;28;20452;-71
2021/07/16 04:57:33;;;;;;;34.73;32.03;;;;;;;;;;5032361;28;20480;-71
2021/07/16 05:00:00;;;;;;;34.73;31.63;;;;;;;;;;5040645;28;20818;-71
2021/07/16 05:02:27;;;;;;;33.20;30.90;;;;;;;;;;5048835;28;20458;-71
2021/07/16 05:04:54;;;;;;;33.90;31.20;;;;;;;;;;5050285;28;20443;-71
2021/07/16 05:07:23;;;;;;;34.50;32.00;;;;;;;;;;5038197;28;20809;-71
2021/07/16 05:09:50;;;;;;;33.93;31.50;;;;;;;;;;5040238;28;20455;-71
2021/07/16 05:12:17;;;;;;;32.50;30.00;;;;;;;;;;5042883;28;20821;-72
2021/07/16 05:14:44;;;;;;;32.80;30.40;;;;;;;;;;5049184;28;20994;-71
2021/07/16 05:17:11;;;;;;;32.20;29.80;;;;;;;;;;5042722;28;20491;-71
2021/07/16 05:19:38;;;;;;;32.53;30.33;;;;;;;;;;5045899;28;20954;-71
2021/07/16 05:22:06;;;;;;;32.63;30.10;;;;;;;;;;5041779;28;20454;-72
2021/07/16 05:24:37;;;;;;;32.77;30.47;;;;;;;;;;5049992;28;20476;-72
2021/07/16 05:27:04;;;;;;;32.43;29.93;;;;;;;;;;5049749;28;20444;-72
2021/07/16 05:29:31;;;;;;;32.20;29.80;;;;;;;;;;5049823;28;20501;-72
2021/07/16 05:31:59;;;;;;;31.47;29.07;;;;;;;;;;5042096;28;20480;-72
2021/07/16 05:34:26;;;;;;;32.73;30.23;;;;;;;;;;5046834;28;20801;-72
2021/07/16 05:36:53;;;;;;;32.30;30.07;;;;;;;;;;5036084;28;20480;-73
2021/07/16 05:39:20;;;;;;;31.73;29.27;;;;;;;;;;5046357;28;20458;-72
2021/07/16 05:41:48;;;;;;;33.07;30.30;;;;;;;;;;5037346;28;20549;-72
2021/07/16 05:44:15;;;;;;;31.07;29.00;;;;;;;;;;5041700;28;20486;-73
2021/07/16 05:46:43;;;;;;;31.50;29.13;;;;;;;;;;5037146;28;20471;-73
2021/07/16 05:49:10;;;;;;;32.67;29.63;;;;;;;;;;5044052;28;20453;-72
2021/07/16 05:51:37;;;;;;;31.63;29.23;;;;;;;;;;5033682;28;20452;-72
2021/07/16 05:54:04;;;;;;;32.07;29.70;;;;;;;;;;5044629;28;20480;-73
2021/07/16 05:56:31;;;;;;;32.50;30.00;;;;;;;;;;5049255;28;20443;-73
2021/07/16 05:59:00;;;;;;;31.63;29.23;;;;;;;;;;5036671;28;20456;-72
2021/07/16 06:01:27;;;;;;;34.47;29.30;;;;;;;;;;5041724;28;20452;-72
2021/07/16 06:03:54;;;;;;;33.87;31.20;;;;;;;;;;5033766;28;20479;-72
2021/07/16 06:06:21;;;;;;;34.30;31.80;;;;;;;;;;5036210;28;20793;-69
2021/07/16 06:08:48;;;;;;;34.07;31.47;;;;;;;;;;5050171;28;20466;-69
2021/07/16 06:11:15;;;;;;;41.77;38.83;;;;;;;;;;5053415;28;20451;-69
2021/07/16 06:13:42;;;;;;;37.50;34.70;;;;;;;;;;5053869;28;20467;-69
2021/07/16 06:16:11;;;;;;;38.40;35.77;;;;;;;;;;5050342;28;20456;-69
2021/07/16 06:18:38;;;;;;;30.80;28.50;;;;;;;;;;5033601;28;20511;-69
2021/07/16 06:21:06;;;;;;;31.37;29.10;;;;;;;;;;5040751;28;20946;-69
2021/07/16 06:23:33;;;;;;;32.00;29.60;;;;;;;;;;5052111;28;20476;-69
2021/07/16 06:26:00;;;;;;;30.67;28.17;;;;;;;;;;5049916;28;20451;-69
2021/07/16 06:28:27;;;;;;;30.03;27.70;;;;;;;;;;5039007;28;20444;-69
2021/07/16 06:30:54;;;;;;;31.00;28.50;;;;;;;;;;5053008;28;20447;-69
2021/07/16 06:33:23;;;;;;;29.03;26.93;;;;;;;;;;5052581;28;20467;-69
2021/07/16 06:35:50;;;;;;;29.77;27.87;;;;;;;;;;5050952;28;20824;-69
2021/07/16 06:38:17;;;;;;;30.47;28.10;;;;;;;;;;5039068;28;20499;-69
2021/07/16 06:40:44;;;;;;;29.57;27.20;;;;;;;;;;5036276;28;20455;-69
2021/07/16 06:43:11;;;;;;;28.57;26.37;;;;;;;;;;5039767;28;20506;-69
2021/07/16 06:45:39;;;;;;;29.17;27.17;;;;;;;;;;5050046;28;20804;-69
2021/07/16 06:48:06;;;;;;;28.67;26.57;;;;;;;;;;5050389;28;20470;-69
2021/07/16 06:50:35;;;;;;;30.37;28.10;;;;;;;;;;5051315;28;20805;-69
2021/07/16 06:53:02;;;;;;;28.43;26.30;;;;;;;;;;5065617;28;20470;-70
2021/07/16 06:55:29;;;;;;;28.63;26.43;;;;;;;;;;5049481;28;20456;-69
2021/07/16 06:57:56;;;;;;;28.00;26.00;;;;;;;;;;5051434;28;20479;-71
2021/07/16 07:00:23;;;;;;;27.70;25.40;;;;;;;;;;5051534;28;20466;-71
2021/07/16 07:02:50;;;;;;;27.67;25.70;;;;;;;;;;5044326;28;21011;-71
2021/07/16 07:05:19;;;;;;;28.73;26.40;;;;;;;;;;5043632;28;20467;-71
2021/07/16 07:07:47;;;;;;;27.13;25.07;;;;;;;;;;5052464;28;20502;-73
2021/07/16 07:10:15;;;;;;;27.23;25.17;;;;;;;;;;5044909;28;20456;-72
2021/07/16 07:12:44;;;;;;;27.87;25.77;;;;;;;;;;5044188;28;20949;-73
2021/07/16 07:15:11;;;;;;;27.13;25.07;;;;;;;;;;5048779;28;20466;-73
2021/07/16 07:17:39;;;;;;;28.67;26.57;;;;;;;;;;5050821;28;20486;-73
2021/07/16 07:20:06;;;;;;;27.67;25.50;;;;;;;;;;5052187;28;20470;-74
2021/07/16 07:22:34;;;;;;;27.23;25.17;;;;;;;;;;5047603;28;20462;-73
2021/07/16 07:25:02;;;;;;;28.70;26.20;;;;;;;;;;5053639;28;20475;-75
2021/07/16 07:27:30;;;;;;;27.67;25.47;;;;;;;;;;5050899;28;20455;-75
2021/07/16 07:29:57;;;;;;;28.27;25.80;;;;;;;;;;5052531;28;20525;-74
2021/07/16 07:32:24;;;;;;;29.87;27.67;;;;;;;;;;5052205;28;20456;-74
2021/07/16 07:34:52;;;;;;;28.10;26.10;;;;;;;;;;5042098;28;20448;-74
2021/07/16 07:37:19;;;;;;;29.10;27.10;;;;;;;;;;5047207;28;20507;-75
2021/07/16 07:39:46;;;;;;;28.70;26.50;;;;;;;;;;5034393;28;20823;-74
2021/07/16 07:42:17;;;;;;;27.90;26.00;;;;;;;;;;5044804;28;20452;-74
2021/07/16 07:44:44;;;;;;;29.47;27.17;;;;;;;;;;5051779;28;20483;-76
2021/07/16 07:47:12;;;;;;;28.07;26.07;;;;;;;;;;5052177;28;20436;-75
2021/07/16 07:49:39;;;;;;;28.30;26.00;;;;;;;;;;5052923;28;20459;-74
2021/07/16 07:52:07;;;;;;;28.40;26.20;;;;;;;;;;5055024;28;20463;-73
2021/07/16 07:54:35;;;;;;;29.80;27.70;;;;;;;;;;5049945;28;20844;-73
2021/07/16 07:57:02;;;;;;;29.13;26.93;;;;;;;;;;5039065;28;20453;-74
2021/07/16 07:59:31;;;;;;;28.53;26.37;;;;;;;;;;5033536;28;20823;-73
2021/07/16 08:01:58;;;;;;;30.40;28.17;;;;;;;;;;5031476;28;20452;-74
2021/07/16 08:04:25;;;;;;;29.17;26.50;;;;;;;;;;5031626;28;20464;-72
2021/07/16 08:06:52;;;;;;;37.93;35.33;;;;;;;;;;5031693;28;20444;-70
2021/07/16 08:09:19;;;;;;;34.50;31.80;;;;;;;;;;5039331;28;20890;-71
2021/07/16 08:11:46;;;;;;;39.20;36.10;;;;;;;;;;5050229;28;20562;-71
2021/07/16 08:14:14;;;;;;;39.43;36.53;;;;;;;;;;5039461;28;20987;-72
2021/07/16 08:16:46;;;;;;;28.43;26.17;;;;;;;;;;5031773;28;20452;-72
2021/07/16 08:19:17;;;;;;;28.77;26.40;;;;;;;;;;5031107;28;20488;-73
2021/07/16 08:21:44;;;;;;;29.07;26.83;;;;;;;;;;5035336;28;20514;-72
2021/07/16 08:24:11;;;;;;;28.03;26.00;;;;;;;;;;5050970;28;20476;-71
2021/07/16 08:26:38;;;;;;;29.23;27.13;;;;;;;;;;5052305;28;20447;-71
2021/07/16 08:29:05;;;;;;;27.20;25.20;;;;;;;;;;5052151;28;20927;-72
2021/07/16 08:31:32;;;;;;;27.73;25.67;;;;;;;;;;5049688;28;20448;-72
2021/07/16 08:34:01;;;;;;;27.77;25.77;;;;;;;;;;5046985;28;20472;-70
2021/07/16 08:36:28;;;;;;;25.73;23.73;;;;;;;;;;5048181;28;20451;-69
2021/07/16 08:38:55;;;;;;;26.80;24.70;;;;;;;;;;5051187;28;20483;-70
2021/07/16 08:41:22;;;;;;;26.10;24.20;;;;;;;;;;5051206;28;20458;-70
2021/07/16 08:43:51;;;;;;;26.57;24.37;;;;;;;;;;5051018;28;20483;-69
2021/07/16 08:46:18;;;;;;;26.37;24.37;;;;;;;;;;5050774;28;20451;-67
2021/07/16 08:48:47;;;;;;;25.30;23.47;;;;;;;;;;5051124;28;20852;-68
2021/07/16 08:51:16;;;;;;;25.07;23.17;;;;;;;;;;5050934;28;20842;-70
2021/07/16 08:53:44;;;;;;;25.20;23.20;;;;;;;;;;5050991;28;20471;-68
2021/07/16 08:56:12;;;;;;;25.90;23.90;;;;;;;;;;5051313;28;20470;-68
2021/07/16 08:58:39;;;;;;;25.50;23.50;;;;;;;;;;5051212;28;20479;-70
2021/07/16 09:01:06;;;;;;;25.17;23.17;;;;;;;;;;5051126;28;20455;-68
2021/07/16 09:03:36;;;;;;;24.40;22.50;;;;;;;;;;5050530;28;20496;-68
2021/07/16 09:06:04;;;;;;;25.07;23.07;;;;;;;;;;5052033;28;20451;-68
2021/07/16 09:08:33;;;;;;;24.40;22.50;;;;;;;;;;5038282;28;20452;-68
2021/07/16 09:11:01;;;;;;;24.67;22.87;;;;;;;;;;5038721;28;20461;-67
2021/07/16 09:13:30;;;;;;;23.90;22.17;;;;;;;;;;5053886;28;20989;-68
2021/07/16 09:15:59;;;;;;;23.50;22.00;;;;;;;;;;5054520;28;20452;-68
2021/07/16 09:18:27;;;;;;;25.10;23.00;;;;;;;;;;5054192;28;20487;-68
2021/07/16 09:21:09;;;;;;;23.50;21.83;;;;;;;;;;5054511;28;20469;-68
2021/07/16 09:23:39;;;;;;;24.13;22.40;;;;;;;;;;5053985;28;20486;-68
2021/07/16 09:26:09;;;;;;;25.60;23.50;;;;;;;;;;5054149;28;20822;-69
2021/07/16 09:28:37;;;;;;;24.23;22.63;;;;;;;;;;5054529;28;20501;-69
2021/07/16 09:31:17;;;;;;;23.47;21.87;;;;;;;;;;5050725;28;20501;-68
2021/07/16 09:33:46;;;;;;;24.20;22.33;;;;;;;;;;5054618;28;20562;-68
2021/07/16 09:36:14;;;;;;;24.13;22.33;;;;;;;;;;5052687;28;20501;-68
2021/07/16 09:38:42;;;;;;;24.83;23.10;;;;;;;;;;5034282;28;20512;-68
2021/07/16 09:41:10;;;;;;;24.80;22.70;;;;;;;;;;5034340;28;20448;-68
2021/07/16 09:43:37;;;;;;;24.33;22.73;;;;;;;;;;5033906;28;20479;-68
2021/07/16 09:46:05;;;;;;;23.73;22.07;;;;;;;;;;5033787;28;20951;-68
2021/07/16 09:48:33;;;;;;;23.23;21.60;;;;;;;;;;5034546;28;20447;-68
2021/07/16 09:51:17;;;;;;;24.40;22.50;;;;;;;;;;5035202;28;20451;-68
2021/07/16 09:53:48;;;;;;;23.80;22.07;;;;;;;;;;5053601;28;20473;-68
2021/07/16 09:56:17;;;;;;;23.73;22.07;;;;;;;;;;5053714;28;20512;-68
2021/07/16 09:58:44;;;;;;;24.23;22.30;;;;;;;;;;5053071;28;20479;-68
2021/07/16 10:01:11;;;;;;;23.47;21.83;;;;;;;;;;5053639;28;20945;-69
2021/07/16 10:03:39;;;;;;;22.90;21.30;;;;;;;;;;5052456;28;20471;-70
2021/07/16 10:06:06;;;;;;;23.13;21.43;;;;;;;;;;5053365;28;20950;-69
2021/07/16 10:08:35;;;;;;;22.83;21.23;;;;;;;;;;5053412;28;20443;-68
2021/07/16 10:11:04;;;;;;;22.50;21.00;;;;;;;;;;5053391;28;20457;-68
2021/07/16 10:13:32;;;;;;;22.73;21.30;;;;;;;;;;5053648;28;20467;-66
2021/07/16 10:16:00;;;;;;;22.77;21.30;;;;;;;;;;5053836;28;20439;-66
2021/07/16 10:18:28;;;;;;;22.53;20.93;;;;;;;;;;5049173;28;20487;-66
2021/07/16 10:20:55;;;;;;;23.00;21.33;;;;;;;;;;5033158;28;20535;-69
2021/07/16 10:23:23;;;;;;;22.40;20.80;;;;;;;;;;5033811;28;20474;-68
2021/07/16 10:25:51;;;;;;;21.83;20.37;;;;;;;;;;5033354;28;20216;-67
2021/07/16 10:28:32;;;;;;;22.17;20.70;;;;;;;;;;5048745;28;20775;-67
2021/07/16 10:31:00;;;;;;;21.13;19.93;;;;;;;;;;5053076;28;20531;-67
2021/07/16 10:33:38;;;;;;;22.37;20.67;;;;;;;;;;5049032;28;20694;-67
2021/07/16 10:36:05;;;;;;;22.30;20.90;;;;;;;;;;5051464;28;20204;-67
2021/07/16 10:38:33;;;;;;;22.03;20.50;;;;;;;;;;5053085;28;20217;-67
2021/07/16 10:41:01;;;;;;;21.55;20.15;;;;;;;;;;5052532;28;20687;-67
2021/07/16 10:43:43;;;;;;;24.00;22.00;;;;;;;;;;5052075;28;20261;-68
2021/07/16 10:46:30;;;;;;;22.67;21.00;;;;;;;;;;5052728;28;20250;-68
2021/07/16 10:48:57;;;;;;;22.40;20.77;;;;;;;;;;5032891;28;20205;-67
2021/07/16 10:51:25;;;;;;;21.70;20.20;;;;;;;;;;5079100;22;20228;-74
2021/07/16 10:53:53;;;;;;;21.83;20.50;;;;;;;;;;5064909;28;20724;-72
2021/07/16 10:56:20;;;;;;;22.10;20.80;;;;;;;;;;5072470;28;20921;-72
2021/07/16 10:58:50;;;;;;;21.80;20.40;;;;;;;;;;5066586;28;20217;-72
2021/07/16 11:01:39;;;;;;;22.47;20.87;;;;;;;;;;5055026;28;20226;-72
2021/07/16 11:04:07;;;;;;;21.50;19.60;;;;;;;;;;5043096;28;20236;-72
2021/07/16 11:06:48;;;;;;;22.00;20.30;;;;;;;;;;5053135;28;20617;-72
2021/07/16 11:09:32;;;;;;;22.47;20.90;;;;;;;;;;5052807;28;20209;-72
2021/07/16 11:12:14;;;;;;;22.83;20.93;;;;;;;;;;5050982;28;20475;-72
2021/07/16 11:14:46;;;;;;;22.58;20.70;;;;;;;;;;5041270;28;20562;-72
2021/07/16 11:17:25;;;;;;;22.80;21.10;;;;;;;;;;5070165;28;20689;-72
2021/07/16 11:20:07;;;;;;;21.17;19.55;;;;;;;;;;5057897;28;20208;-71
2021/07/16 11:22:34;;;;;;;25.35;23.50;;;;;;;;;;5051817;28;20606;-72
2021/07/16 11:25:01;;;;;;;25.45;23.65;;;;;;;;;;5053514;28;20204;-72
2021/07/16 11:27:28;;;;;;;24.58;22.75;;;;;;;;;;5055191;28;20227;-73
2021/07/16 11:29:57;;;;;;;23.92;22.08;;;;;;;;;;5052054;28;20204;-72
2021/07/16 11:32:25;;;;;;;24.00;22.55;;;;;;;;;;5052145;28;20228;-72
2021/07/16 11:34:54;;;;;;;22.97;21.47;;;;;;;;;;5050965;28;20683;-73
2021/07/16 11:37:25;;;;;;;24.10;22.20;;;;;;;;;;5051905;28;20240;-71
2021/07/16 11:39:53;;;;;;;23.33;21.77;;;;;;;;;;5052156;28;20224;-72
2021/07/16 11:42:21;;;;;;;24.52;22.67;;;;;;;;;;5065234;28;20231;-72
2021/07/16 11:44:49;;;;;;;24.10;22.50;;;;;;;;;;5045320;28;20556;-72
2021/07/16 11:47:18;;;;;;;24.63;23.02;;;;;;;;;;5051565;28;20718;-72
2021/07/16 11:49:46;;;;;;;24.52;22.70;;;;;;;;;;5052087;28;20201;-72
2021/07/16 11:52:16;;;;;;;23.23;21.52;;;;;;;;;;5060373;28;20228;-72
2021/07/16 11:54:43;;;;;;;25.23;23.38;;;;;;;;;;5051617;28;20193;-72
2021/07/16 11:57:10;;;;;;;24.40;22.60;;;;;;;;;;5052235;28;20212;-71
2021/07/16 11:59:38;;;;;;;24.58;22.67;;;;;;;;;;5051855;28;20232;-72
2021/07/16 12:02:05;;;;;;;24.20;22.45;;;;;;;;;;5050322;28;20225;-71
2021/07/16 12:04:34;;;;;;;24.27;22.58;;;;;;;;;;5051446;28;20570;-70
2021/07/16 12:07:02;;;;;;;24.33;22.27;;;;;;;;;;5051506;28;20209;-71
2021/07/16 12:09:30;;;;;;;24.15;22.55;;;;;;;;;;5051472;28;20672;-72
2021/07/16 12:12:01;;;;;;;24.00;22.25;;;;;;;;;;5051232;28;20731;-72
2021/07/16 12:14:28;;;;;;;24.67;23.08;;;;;;;;;;5051731;28;20193;-72
2021/07/16 12:16:56;;;;;;;23.85;22.25;;;;;;;;;;5051894;28;20200;-71
2021/07/16 12:19:23;;;;;;;24.48;22.77;;;;;;;;;;5049865;28;20316;-71
2021/07/16 12:21:52;;;;;;;24.85;23.05;;;;;;;;;;5034553;28;20222;-71
2021/07/16 12:24:19;;;;;;;25.10;23.20;;;;;;;;;;5032112;28;20209;-71
2021/07/16 12:26:46;;;;;;;23.95;22.17;;;;;;;;;;5034474;28;20197;-63
2021/07/16 12:29:13;;;;;;;25.30;23.50;;;;;;;;;;5035790;28;20227;-64
2021/07/16 12:31:50;;;;;;;24.00;22.27;;;;;;;;;;5031140;28;20216;-66
2021/07/16 12:34:24;;;;;;;25.30;23.50;;;;;;;;;;5031092;28;20196;-69
2021/07/16 12:36:53;;;;;;;24.98;22.90;;;;;;;;;;5032712;28;20201;-68
2021/07/16 12:39:21;;;;;;;24.75;23.00;;;;;;;;;;5031452;28;20228;-69
2021/07/16 12:41:48;;;;;;;24.70;23.10;;;;;;;;;;5045653;28;20721;-68
2021/07/16 12:44:16;;;;;;;25.27;23.38;;;;;;;;;;5033520;28;20208;-68
2021/07/16 12:46:43;;;;;;;24.70;23.10;;;;;;;;;;5040976;28;20205;-68
2021/07/16 12:49:12;;;;;;;24.63;22.92;;;;;;;;;;5049123;28;20207;-68
2021/07/16 12:51:40;;;;;;;24.05;22.33;;;;;;;;;;5043993;28;20239;-68
2021/07/16 12:54:18;;;;;;;25.48;23.30;;;;;;;;;;5040561;28;20209;-68
2021/07/16 12:56:45;;;;;;;24.67;22.95;;;;;;;;;;5037262;28;20194;-69
2021/07/16 12:59:21;;;;;;;23.58;22.08;;;;;;;;;;5054797;28;20221;-69
2021/07/16 13:01:50;;;;;;;24.67;23.08;;;;;;;;;;5052469;28;20710;-68
2021/07/16 13:04:17;;;;;;;24.40;22.88;;;;;;;;;;5035239;28;20331;-68
2021/07/16 13:06:45;;;;;;;24.30;22.70;;;;;;;;;;5035234;28;20209;-69
2021/07/16 13:09:19;;;;;;;22.63;21.08;;;;;;;;;;5034959;28;20572;-69
2021/07/16 13:11:58;;;;;;;23.38;21.83;;;;;;;;;;5035527;28;20235;-69
2021/07/16 13:14:25;;;;;;;23.25;21.48;;;;;;;;;;5035120;28;20213;-68
2021/07/16 13:17:12;;;;;;;24.10;22.42;;;;;;;;;;5035128;28;20227;-68
2021/07/16 13:19:40;;;;;;;22.95;21.38;;;;;;;;;;5034661;28;20596;-69
2021/07/16 13:22:07;;;;;;;22.67;21.00;;;;;;;;;;5034079;28;20213;-69
2021/07/16 13:24:35;;;;;;;24.75;22.83;;;;;;;;;;5034644;28;20205;-68
2021/07/16 13:27:02;;;;;;;23.40;21.63;;;;;;;;;;5038729;28;20686;-68
2021/07/16 13:29:29;;;;;;;22.20;20.70;;;;;;;;;;5034424;28;20558;-68
2021/07/16 13:31:57;;;;;;;22.60;21.03;;;;;;;;;;5034870;28;20222;-68
2021/07/16 13:34:24;;;;;;;24.30;22.33;;;;;;;;;;5034301;28;20216;-69
2021/07/16 13:36:51;;;;;;;25.20;23.23;;;;;;;;;;5033916;28;20448;-68
2021/07/16 13:39:18;;;;;;;24.77;23.17;;;;;;;;;;5049723;28;20225;-69
2021/07/16 13:41:46;;;;;;;24.50;22.90;;;;;;;;;;5065063;28;20230;-69
2021/07/16 13:44:13;;;;;;;24.80;23.20;;;;;;;;;;5073575;28;20204;-68
2021/07/16 13:46:40;;;;;;;25.13;23.33;;;;;;;;;;5069014;28;20447;-69
2021/07/16 13:49:08;;;;;;;24.53;22.77;;;;;;;;;;5035476;28;20448;-69
2021/07/16 13:51:36;;;;;;;25.30;23.43;;;;;;;;;;5034843;28;20232;-68
2021/07/16 13:54:03;;;;;;;24.40;22.70;;;;;;;;;;5041145;28;20459;-68
2021/07/16 13:56:31;;;;;;;27.63;25.20;;;;;;;;;;5051834;28;20201;-69
2021/07/16 13:58:59;;;;;;;27.50;25.40;;;;;;;;;;5033634;28;20822;-70
2021/07/16 14:01:27;;;;;;;26.50;24.60;;;;;;;;;;5040623;28;20480;-70
2021/07/16 14:03:54;;;;;;;26.70;24.77;;;;;;;;;;5053228;28;20451;-70
2021/07/16 14:06:21;;;;;;;25.70;23.67;;;;;;;;;;5053994;28;20530;-69
2021/07/16 14:08:48;;;;;;;25.77;23.67;;;;;;;;;;5053431;28;20447;-70
2021/07/16 14:11:15;;;;;;;26.50;24.43;;;;;;;;;;5048060;28;20471;-70
2021/07/16 14:13:42;;;;;;;23.70;22.10;;;;;;;;;;5035462;28;20448;-69
2021/07/16 14:16:11;;;;;;;27.40;25.30;;;;;;;;;;5052386;28;20459;-71
2021/07/16 14:18:38;;;;;;;26.13;24.10;;;;;;;;;;5034408;28;20460;-68
2021/07/16 14:21:05;;;;;;;25.77;23.60;;;;;;;;;;5033026;28;21014;-68
2021/07/16 14:23:32;;;;;;;26.30;24.07;;;;;;;;;;5033835;28;20447;-68